Terminal Aerodrome Forecast
Issued by NWS Knoxville/Tri Cities, TN

Home | Current Version | Previous Version | Text Only | Print | Product List | Glossary On
Versions: 1 2 3 4 5 6 7 8 9 10 11 12 13 14 15
000
FTUS44 KMRX 252335
TAFCHA
TAF
KCHA 252335Z 2600/2624 20004KT P6SM SCT020 BKN035
      TEMPO 2600/2604 SCT035 OVC090
     FM260400 VRB03KT P6SM VCSH BKN025 OVC045
     FM260600 35004KT 4SM -SHRA BR SCT007 OVC015
     FM261200 36005KT P6SM VCSH SCT015 OVC025
     FM261600 36010KT P6SM OVC035
     FM262000 01008KT P6SM SCT035=

USA.gov is the U.S. government's official web portal to all federal, state and local government web resources and services.